sensor_id;sensor_type;location;lat;lon;timestamp;P1;durP1;ratioP1;P2;durP2;ratioP2
56233;SDS011;42141;53.240;6.580;2023-04-16T00:02:03;57.63;;;21.90;;
56233;SDS011;42141;53.240;6.580;2023-04-16T00:04:29;70.85;;;22.10;;
56233;SDS011;42141;53.240;6.580;2023-04-16T00:06:55;74.72;;;23.88;;
56233;SDS011;42141;53.240;6.580;2023-04-16T00:09:21;58.22;;;21.25;;
56233;SDS011;42141;53.240;6.580;2023-04-16T00:11:46;68.25;;;23.65;;
56233;SDS011;42141;53.240;6.580;2023-04-16T00:14:12;68.93;;;22.75;;
56233;SDS011;42141;53.240;6.580;2023-04-16T00:16:38;66.90;;;22.00;;
56233;SDS011;42141;53.240;6.580;2023-04-16T00:19:03;78.50;;;23.15;;
56233;SDS011;42141;53.240;6.580;2023-04-16T00:21:29;72.72;;;24.60;;
56233;SDS011;42141;53.240;6.580;2023-04-16T00:23:58;77.07;;;25.80;;
56233;SDS011;42141;53.240;6.580;2023-04-16T00:26:23;83.07;;;26.85;;
56233;SDS011;42141;53.240;6.580;2023-04-16T00:28:49;64.68;;;25.65;;
56233;SDS011;42141;53.240;6.580;2023-04-16T00:31:14;72.13;;;27.02;;
56233;SDS011;42141;53.240;6.580;2023-04-16T00:33:40;80.75;;;27.58;;
56233;SDS011;42141;53.240;6.580;2023-04-16T00:36:06;65.15;;;27.38;;
56233;SDS011;42141;53.240;6.580;2023-04-16T00:38:32;71.78;;;27.45;;
56233;SDS011;42141;53.240;6.580;2023-04-16T00:40:57;66.32;;;27.60;;
56233;SDS011;42141;53.240;6.580;2023-04-16T00:43:24;78.15;;;27.02;;
56233;SDS011;42141;53.240;6.580;2023-04-16T00:45:51;78.03;;;28.40;;
56233;SDS011;42141;53.240;6.580;2023-04-16T00:48:19;87.40;;;28.92;;
56233;SDS011;42141;53.240;6.580;2023-04-16T00:50:45;74.43;;;27.63;;
56233;SDS011;42141;53.240;6.580;2023-04-16T00:53:11;71.25;;;28.92;;
56233;SDS011;42141;53.240;6.580;2023-04-16T00:55:38;76.53;;;29.60;;
56233;SDS011;42141;53.240;6.580;2023-04-16T00:58:04;85.97;;;26.60;;
56233;SDS011;42141;53.240;6.580;2023-04-16T01:00:30;66.78;;;27.65;;
56233;SDS011;42141;53.240;6.580;2023-04-16T01:02:56;58.40;;;25.48;;
56233;SDS011;42141;53.240;6.580;2023-04-16T01:05:23;75.03;;;30.00;;
56233;SDS011;42141;53.240;6.580;2023-04-16T01:07:49;94.32;;;27.65;;
56233;SDS011;42141;53.240;6.580;2023-04-16T01:10:15;83.05;;;27.42;;
56233;SDS011;42141;53.240;6.580;2023-04-16T01:12:41;97.18;;;29.08;;
56233;SDS011;42141;53.240;6.580;2023-04-16T01:15:07;69.47;;;23.40;;
56233;SDS011;42141;53.240;6.580;2023-04-16T01:17:33;65.00;;;25.65;;
56233;SDS011;42141;53.240;6.580;2023-04-16T01:19:58;84.88;;;26.88;;
56233;SDS011;42141;53.240;6.580;2023-04-16T01:22:25;107.18;;;25.60;;
56233;SDS011;42141;53.240;6.580;2023-04-16T01:24:51;113.60;;;25.77;;
56233;SDS011;42141;53.240;6.580;2023-04-16T01:27:17;98.00;;;25.35;;
56233;SDS011;42141;53.240;6.580;2023-04-16T01:29:43;104.53;;;24.80;;
56233;SDS011;42141;53.240;6.580;2023-04-16T01:32:08;83.82;;;23.95;;
56233;SDS011;42141;53.240;6.580;2023-04-16T01:34:34;108.40;;;24.83;;
56233;SDS011;42141;53.240;6.580;2023-04-16T01:37:00;69.15;;;25.80;;
56233;SDS011;42141;53.240;6.580;2023-04-16T01:39:27;81.80;;;24.75;;
56233;SDS011;42141;53.240;6.580;2023-04-16T01:41:52;81.68;;;25.85;;
56233;SDS011;42141;53.240;6.580;2023-04-16T01:44:18;66.97;;;27.08;;
56233;SDS011;42141;53.240;6.580;2023-04-16T01:46:44;66.15;;;25.10;;
56233;SDS011;42141;53.240;6.580;2023-04-16T01:49:09;77.45;;;26.02;;
56233;SDS011;42141;53.240;6.580;2023-04-16T01:51:35;61.80;;;24.20;;
56233;SDS011;42141;53.240;6.580;2023-04-16T01:54:01;67.88;;;26.08;;
56233;SDS011;42141;53.240;6.580;2023-04-16T01:56:26;75.93;;;26.20;;
56233;SDS011;42141;53.240;6.580;2023-04-16T01:58:52;75.82;;;26.80;;
56233;SDS011;42141;53.240;6.580;2023-04-16T02:01:18;110.75;;;27.90;;
56233;SDS011;42141;53.240;6.580;2023-04-16T02:03:43;73.93;;;28.02;;
56233;SDS011;42141;53.240;6.580;2023-04-16T02:06:09;91.07;;;28.35;;
56233;SDS011;42141;53.240;6.580;2023-04-16T02:08:35;95.95;;;29.05;;
56233;SDS011;42141;53.240;6.580;2023-04-16T02:11:01;86.35;;;29.80;;
56233;SDS011;42141;53.240;6.580;2023-04-16T02:13:26;100.50;;;29.48;;
56233;SDS011;42141;53.240;6.580;2023-04-16T02:15:52;78.95;;;29.63;;
56233;SDS011;42141;53.240;6.580;2023-04-16T02:18:18;79.57;;;29.20;;
56233;SDS011;42141;53.240;6.580;2023-04-16T02:20:44;74.20;;;28.80;;
56233;SDS011;42141;53.240;6.580;2023-04-16T02:23:11;91.20;;;29.15;;
56233;SDS011;42141;53.240;6.580;2023-04-16T02:25:39;75.60;;;30.02;;
56233;SDS011;42141;53.240;6.580;2023-04-16T02:28:07;97.15;;;29.40;;
56233;SDS011;42141;53.240;6.580;2023-04-16T02:30:34;104.68;;;28.27;;
56233;SDS011;42141;53.240;6.580;2023-04-16T02:33:01;86.95;;;29.98;;
56233;SDS011;42141;53.240;6.580;2023-04-16T02:35:29;82.28;;;28.13;;
56233;SDS011;42141;53.240;6.580;2023-04-16T02:37:56;86.38;;;27.73;;
56233;SDS011;42141;53.240;6.580;2023-04-16T02:40:22;96.40;;;28.08;;
56233;SDS011;42141;53.240;6.580;2023-04-16T02:42:48;86.70;;;29.65;;
56233;SDS011;42141;53.240;6.580;2023-04-16T02:45:14;90.90;;;27.20;;
56233;SDS011;42141;53.240;6.580;2023-04-16T02:47:40;107.60;;;30.33;;
56233;SDS011;42141;53.240;6.580;2023-04-16T02:50:06;79.65;;;28.42;;
56233;SDS011;42141;53.240;6.580;2023-04-16T02:52:32;94.10;;;28.05;;
56233;SDS011;42141;53.240;6.580;2023-04-16T02:54:58;97.25;;;27.77;;
56233;SDS011;42141;53.240;6.580;2023-04-16T02:57:24;86.38;;;27.85;;
56233;SDS011;42141;53.240;6.580;2023-04-16T02:59:50;77.38;;;25.90;;
56233;SDS011;42141;53.240;6.580;2023-04-16T03:02:15;91.45;;;25.85;;
56233;SDS011;42141;53.240;6.580;2023-04-16T03:04:41;74.63;;;25.13;;
56233;SDS011;42141;53.240;6.580;2023-04-16T03:07:07;80.18;;;25.67;;
56233;SDS011;42141;53.240;6.580;2023-04-16T03:09:36;75.30;;;25.65;;
56233;SDS011;42141;53.240;6.580;2023-04-16T03:12:02;88.60;;;26.88;;
56233;SDS011;42141;53.240;6.580;2023-04-16T03:14:28;74.05;;;26.67;;
56233;SDS011;42141;53.240;6.580;2023-04-16T03:16:54;77.97;;;25.35;;
56233;SDS011;42141;53.240;6.580;2023-04-16T03:19:19;84.85;;;26.20;;
56233;SDS011;42141;53.240;6.580;2023-04-16T03:21:45;67.75;;;23.88;;
56233;SDS011;42141;53.240;6.580;2023-04-16T03:24:11;82.45;;;25.42;;
56233;SDS011;42141;53.240;6.580;2023-04-16T03:26:37;73.47;;;26.20;;
56233;SDS011;42141;53.240;6.580;2023-04-16T03:29:03;79.10;;;25.20;;
56233;SDS011;42141;53.240;6.580;2023-04-16T03:31:28;92.90;;;24.70;;
56233;SDS011;42141;53.240;6.580;2023-04-16T03:33:54;99.07;;;25.63;;
56233;SDS011;42141;53.240;6.580;2023-04-16T03:36:20;62.42;;;22.98;;
56233;SDS011;42141;53.240;6.580;2023-04-16T03:38:47;77.20;;;22.85;;
56233;SDS011;42141;53.240;6.580;2023-04-16T03:41:13;97.43;;;23.83;;
56233;SDS011;42141;53.240;6.580;2023-04-16T03:43:39;71.35;;;23.13;;
56233;SDS011;42141;53.240;6.580;2023-04-16T03:46:05;81.22;;;22.00;;
56233;SDS011;42141;53.240;6.580;2023-04-16T03:48:31;73.95;;;23.77;;
56233;SDS011;42141;53.240;6.580;2023-04-16T03:50:56;92.03;;;24.20;;
56233;SDS011;42141;53.240;6.580;2023-04-16T03:53:22;70.43;;;21.33;;
56233;SDS011;42141;53.240;6.580;2023-04-16T03:55:48;90.68;;;22.27;;
56233;SDS011;42141;53.240;6.580;2023-04-16T03:58:18;85.90;;;24.25;;
56233;SDS011;42141;53.240;6.580;2023-04-16T04:00:44;80.70;;;23.60;;
56233;SDS011;42141;53.240;6.580;2023-04-16T04:03:10;74.93;;;22.20;;
56233;SDS011;42141;53.240;6.580;2023-04-16T04:05:39;94.93;;;25.90;;
56233;SDS011;42141;53.240;6.580;2023-04-16T04:08:06;90.22;;;24.58;;
56233;SDS011;42141;53.240;6.580;2023-04-16T04:10:32;76.63;;;21.52;;
56233;SDS011;42141;53.240;6.580;2023-04-16T04:12:59;91.80;;;20.75;;
56233;SDS011;42141;53.240;6.580;2023-04-16T04:15:29;86.40;;;21.70;;
56233;SDS011;42141;53.240;6.580;2023-04-16T04:17:56;87.35;;;22.70;;
56233;SDS011;42141;53.240;6.580;2023-04-16T04:20:22;87.40;;;22.95;;
56233;SDS011;42141;53.240;6.580;2023-04-16T04:22:48;92.68;;;22.70;;
56233;SDS011;42141;53.240;6.580;2023-04-16T04:25:15;104.65;;;24.25;;
56233;SDS011;42141;53.240;6.580;2023-04-16T04:27:41;111.53;;;24.58;;
56233;SDS011;42141;53.240;6.580;2023-04-16T04:30:07;110.07;;;24.08;;
56233;SDS011;42141;53.240;6.580;2023-04-16T04:32:33;86.85;;;21.98;;
56233;SDS011;42141;53.240;6.580;2023-04-16T04:35:00;119.00;;;25.48;;
56233;SDS011;42141;53.240;6.580;2023-04-16T04:37:26;107.15;;;24.25;;
56233;SDS011;42141;53.240;6.580;2023-04-16T04:39:52;117.32;;;24.13;;
56233;SDS011;42141;53.240;6.580;2023-04-16T04:42:18;105.95;;;23.05;;
56233;SDS011;42141;53.240;6.580;2023-04-16T04:44:46;102.60;;;24.95;;
56233;SDS011;42141;53.240;6.580;2023-04-16T04:47:13;102.85;;;22.27;;
56233;SDS011;42141;53.240;6.580;2023-04-16T04:49:39;95.90;;;22.38;;
56233;SDS011;42141;53.240;6.580;2023-04-16T04:52:05;118.50;;;22.55;;
56233;SDS011;42141;53.240;6.580;2023-04-16T04:54:31;97.78;;;21.63;;
56233;SDS011;42141;53.240;6.580;2023-04-16T04:56:57;78.47;;;20.92;;
56233;SDS011;42141;53.240;6.580;2023-04-16T04:59:23;79.97;;;20.90;;
56233;SDS011;42141;53.240;6.580;2023-04-16T05:01:50;83.55;;;21.92;;
56233;SDS011;42141;53.240;6.580;2023-04-16T05:04:15;108.95;;;21.92;;
56233;SDS011;42141;53.240;6.580;2023-04-16T05:06:42;84.30;;;21.48;;
56233;SDS011;42141;53.240;6.580;2023-04-16T05:09:08;95.32;;;21.55;;
56233;SDS011;42141;53.240;6.580;2023-04-16T05:11:39;81.57;;;21.00;;
56233;SDS011;42141;53.240;6.580;2023-04-16T05:14:05;78.15;;;20.17;;
56233;SDS011;42141;53.240;6.580;2023-04-16T05:16:31;84.97;;;20.00;;
56233;SDS011;42141;53.240;6.580;2023-04-16T05:18:57;68.10;;;19.42;;
56233;SDS011;42141;53.240;6.580;2023-04-16T05:21:23;82.43;;;20.38;;
56233;SDS011;42141;53.240;6.580;2023-04-16T05:23:50;96.88;;;21.27;;
56233;SDS011;42141;53.240;6.580;2023-04-16T05:26:16;73.70;;;20.75;;
56233;SDS011;42141;53.240;6.580;2023-04-16T05:28:41;92.53;;;20.25;;
56233;SDS011;42141;53.240;6.580;2023-04-16T05:31:07;89.15;;;19.23;;
56233;SDS011;42141;53.240;6.580;2023-04-16T05:33:32;96.78;;;22.77;;
56233;SDS011;42141;53.240;6.580;2023-04-16T05:35:58;109.75;;;19.85;;
56233;SDS011;42141;53.240;6.580;2023-04-16T05:38:24;86.85;;;19.42;;
56233;SDS011;42141;53.240;6.580;2023-04-16T05:40:50;75.55;;;21.00;;
56233;SDS011;42141;53.240;6.580;2023-04-16T05:43:15;71.05;;;18.33;;
56233;SDS011;42141;53.240;6.580;2023-04-16T05:45:41;57.05;;;17.65;;
56233;SDS011;42141;53.240;6.580;2023-04-16T05:48:07;51.90;;;17.67;;
56233;SDS011;42141;53.240;6.580;2023-04-16T05:50:33;55.55;;;19.42;;
56233;SDS011;42141;53.240;6.580;2023-04-16T05:53:01;103.07;;;19.45;;
56233;SDS011;42141;53.240;6.580;2023-04-16T05:55:28;82.55;;;18.90;;
56233;SDS011;42141;53.240;6.580;2023-04-16T05:57:53;74.70;;;19.08;;
56233;SDS011;42141;53.240;6.580;2023-04-16T06:00:19;84.18;;;19.33;;
56233;SDS011;42141;53.240;6.580;2023-04-16T06:02:45;79.70;;;20.23;;
56233;SDS011;42141;53.240;6.580;2023-04-16T06:05:10;92.07;;;18.90;;
56233;SDS011;42141;53.240;6.580;2023-04-16T06:07:36;100.32;;;21.38;;
56233;SDS011;42141;53.240;6.580;2023-04-16T06:10:02;76.10;;;19.83;;
56233;SDS011;42141;53.240;6.580;2023-04-16T06:12:28;79.50;;;17.40;;
56233;SDS011;42141;53.240;6.580;2023-04-16T06:14:53;83.13;;;20.05;;
56233;SDS011;42141;53.240;6.580;2023-04-16T06:17:19;79.85;;;18.45;;
56233;SDS011;42141;53.240;6.580;2023-04-16T06:19:45;81.43;;;20.05;;
56233;SDS011;42141;53.240;6.580;2023-04-16T06:22:10;79.95;;;18.23;;
56233;SDS011;42141;53.240;6.580;2023-04-16T06:24:36;64.60;;;18.00;;
56233;SDS011;42141;53.240;6.580;2023-04-16T06:27:02;85.90;;;19.33;;
56233;SDS011;42141;53.240;6.580;2023-04-16T06:29:28;68.63;;;17.73;;
56233;SDS011;42141;53.240;6.580;2023-04-16T06:31:53;72.60;;;17.23;;
56233;SDS011;42141;53.240;6.580;2023-04-16T06:34:19;70.13;;;20.70;;
56233;SDS011;42141;53.240;6.580;2023-04-16T06:36:45;60.80;;;18.60;;
56233;SDS011;42141;53.240;6.580;2023-04-16T06:39:11;43.55;;;14.38;;
56233;SDS011;42141;53.240;6.580;2023-04-16T06:41:36;61.45;;;16.88;;
56233;SDS011;42141;53.240;6.580;2023-04-16T06:44:02;63.85;;;16.40;;
56233;SDS011;42141;53.240;6.580;2023-04-16T06:46:28;52.05;;;15.40;;
56233;SDS011;42141;53.240;6.580;2023-04-16T06:48:53;61.38;;;15.98;;
56233;SDS011;42141;53.240;6.580;2023-04-16T06:51:19;61.00;;;16.30;;
56233;SDS011;42141;53.240;6.580;2023-04-16T06:53:45;57.75;;;17.45;;
56233;SDS011;42141;53.240;6.580;2023-04-16T06:56:11;62.03;;;16.30;;
56233;SDS011;42141;53.240;6.580;2023-04-16T06:58:36;55.45;;;17.02;;
56233;SDS011;42141;53.240;6.580;2023-04-16T07:01:02;51.20;;;16.02;;
56233;SDS011;42141;53.240;6.580;2023-04-16T07:03:28;53.03;;;16.35;;
56233;SDS011;42141;53.240;6.580;2023-04-16T07:05:54;39.00;;;16.02;;
56233;SDS011;42141;53.240;6.580;2023-04-16T07:08:20;66.88;;;17.75;;
56233;SDS011;42141;53.240;6.580;2023-04-16T07:10:46;45.38;;;16.58;;
56233;SDS011;42141;53.240;6.580;2023-04-16T07:13:11;48.85;;;14.80;;
56233;SDS011;42141;53.240;6.580;2023-04-16T07:15:37;53.45;;;15.55;;
56233;SDS011;42141;53.240;6.580;2023-04-16T07:18:03;52.85;;;17.27;;
56233;SDS011;42141;53.240;6.580;2023-04-16T07:20:28;49.78;;;17.13;;
56233;SDS011;42141;53.240;6.580;2023-04-16T07:22:54;47.38;;;15.43;;
56233;SDS011;42141;53.240;6.580;2023-04-16T07:25:20;47.60;;;15.45;;
56233;SDS011;42141;53.240;6.580;2023-04-16T07:27:46;44.50;;;15.18;;
56233;SDS011;42141;53.240;6.580;2023-04-16T07:30:11;54.30;;;16.02;;
56233;SDS011;42141;53.240;6.580;2023-04-16T07:32:37;52.03;;;15.40;;
56233;SDS011;42141;53.240;6.580;2023-04-16T07:35:03;44.63;;;14.95;;
56233;SDS011;42141;53.240;6.580;2023-04-16T07:37:30;42.72;;;15.98;;
56233;SDS011;42141;53.240;6.580;2023-04-16T07:39:56;59.97;;;16.02;;
56233;SDS011;42141;53.240;6.580;2023-04-16T07:42:22;34.42;;;15.32;;
56233;SDS011;42141;53.240;6.580;2023-04-16T07:44:47;40.47;;;16.10;;
56233;SDS011;42141;53.240;6.580;2023-04-16T07:47:13;46.28;;;15.63;;
56233;SDS011;42141;53.240;6.580;2023-04-16T07:49:39;51.80;;;14.25;;
56233;SDS011;42141;53.240;6.580;2023-04-16T07:52:04;43.85;;;14.52;;
56233;SDS011;42141;53.240;6.580;2023-04-16T07:54:30;36.78;;;13.50;;
56233;SDS011;42141;53.240;6.580;2023-04-16T07:56:56;45.72;;;13.55;;
56233;SDS011;42141;53.240;6.580;2023-04-16T07:59:21;41.20;;;13.32;;
56233;SDS011;42141;53.240;6.580;2023-04-16T08:01:47;44.05;;;13.15;;
56233;SDS011;42141;53.240;6.580;2023-04-16T08:04:13;33.85;;;13.73;;
56233;SDS011;42141;53.240;6.580;2023-04-16T08:06:41;41.40;;;12.80;;
56233;SDS011;42141;53.240;6.580;2023-04-16T08:09:06;41.45;;;12.63;;
56233;SDS011;42141;53.240;6.580;2023-04-16T08:11:32;54.40;;;13.68;;
56233;SDS011;42141;53.240;6.580;2023-04-16T08:13:58;48.78;;;12.25;;
56233;SDS011;42141;53.240;6.580;2023-04-16T08:16:24;40.15;;;12.70;;
56233;SDS011;42141;53.240;6.580;2023-04-16T08:18:49;46.42;;;13.90;;
56233;SDS011;42141;53.240;6.580;2023-04-16T08:21:15;45.42;;;13.77;;
56233;SDS011;42141;53.240;6.580;2023-04-16T08:23:41;30.17;;;11.80;;
56233;SDS011;42141;53.240;6.580;2023-04-16T08:26:07;37.03;;;12.82;;
56233;SDS011;42141;53.240;6.580;2023-04-16T08:28:32;39.80;;;12.77;;
56233;SDS011;42141;53.240;6.580;2023-04-16T08:30:58;37.53;;;12.50;;
56233;SDS011;42141;53.240;6.580;2023-04-16T08:33:24;46.38;;;12.68;;
56233;SDS011;42141;53.240;6.580;2023-04-16T08:35:50;34.53;;;12.75;;
56233;SDS011;42141;53.240;6.580;2023-04-16T08:38:15;37.90;;;13.48;;
56233;SDS011;42141;53.240;6.580;2023-04-16T08:40:41;31.77;;;11.77;;
56233;SDS011;42141;53.240;6.580;2023-04-16T08:43:08;28.27;;;12.77;;
56233;SDS011;42141;53.240;6.580;2023-04-16T08:45:37;37.30;;;12.48;;
56233;SDS011;42141;53.240;6.580;2023-04-16T08:48:06;34.45;;;12.75;;
56233;SDS011;42141;53.240;6.580;2023-04-16T08:50:35;35.63;;;12.27;;
56233;SDS011;42141;53.240;6.580;2023-04-16T08:53:05;33.10;;;11.57;;
56233;SDS011;42141;53.240;6.580;2023-04-16T08:55:47;27.83;;;10.85;;
56233;SDS011;42141;53.240;6.580;2023-04-16T08:58:14;45.63;;;12.95;;
56233;SDS011;42141;53.240;6.580;2023-04-16T09:00:44;29.52;;;11.85;;
56233;SDS011;42141;53.240;6.580;2023-04-16T09:03:10;32.65;;;11.73;;
56233;SDS011;42141;53.240;6.580;2023-04-16T09:05:37;28.23;;;11.13;;
56233;SDS011;42141;53.240;6.580;2023-04-16T09:08:03;36.17;;;10.98;;
56233;SDS011;42141;53.240;6.580;2023-04-16T09:10:31;36.67;;;12.25;;
56233;SDS011;42141;53.240;6.580;2023-04-16T09:12:57;30.10;;;10.73;;
56233;SDS011;42141;53.240;6.580;2023-04-16T09:15:23;36.95;;;11.65;;
56233;SDS011;42141;53.240;6.580;2023-04-16T09:17:53;28.25;;;11.05;;
56233;SDS011;42141;53.240;6.580;2023-04-16T09:20:20;29.02;;;11.75;;
56233;SDS011;42141;53.240;6.580;2023-04-16T09:22:46;31.15;;;13.05;;
56233;SDS011;42141;53.240;6.580;2023-04-16T09:25:12;35.50;;;12.90;;
56233;SDS011;42141;53.240;6.580;2023-04-16T09:27:38;37.65;;;12.55;;
56233;SDS011;42141;53.240;6.580;2023-04-16T09:30:20;28.88;;;11.82;;
56233;SDS011;42141;53.240;6.580;2023-04-16T09:32:51;34.60;;;11.93;;
56233;SDS011;42141;53.240;6.580;2023-04-16T09:35:18;27.77;;;11.02;;
56233;SDS011;42141;53.240;6.580;2023-04-16T09:37:46;31.90;;;11.70;;
56233;SDS011;42141;53.240;6.580;2023-04-16T09:40:24;32.70;;;12.10;;
56233;SDS011;42141;53.240;6.580;2023-04-16T09:42:51;39.42;;;12.20;;
56233;SDS011;42141;53.240;6.580;2023-04-16T09:45:20;29.63;;;13.15;;
56233;SDS011;42141;53.240;6.580;2023-04-16T09:47:46;29.65;;;11.73;;
56233;SDS011;42141;53.240;6.580;2023-04-16T09:50:16;27.42;;;11.30;;
56233;SDS011;42141;53.240;6.580;2023-04-16T09:52:43;27.73;;;11.27;;
56233;SDS011;42141;53.240;6.580;2023-04-16T09:55:12;30.60;;;10.75;;
56233;SDS011;42141;53.240;6.580;2023-04-16T09:57:37;33.33;;;11.55;;
56233;SDS011;42141;53.240;6.580;2023-04-16T10:00:04;26.08;;;10.73;;
56233;SDS011;42141;53.240;6.580;2023-04-16T10:02:33;31.45;;;10.77;;
56233;SDS011;42141;53.240;6.580;2023-04-16T10:05:00;29.13;;;10.70;;
56233;SDS011;42141;53.240;6.580;2023-04-16T10:07:27;23.98;;;10.30;;
56233;SDS011;42141;53.240;6.580;2023-04-16T10:09:53;31.23;;;11.40;;
56233;SDS011;42141;53.240;6.580;2023-04-16T10:12:20;34.30;;;11.73;;
56233;SDS011;42141;53.240;6.580;2023-04-16T10:14:45;26.50;;;10.90;;
56233;SDS011;42141;53.240;6.580;2023-04-16T10:17:11;29.85;;;11.57;;
56233;SDS011;42141;53.240;6.580;2023-04-16T10:19:37;33.10;;;11.88;;
56233;SDS011;42141;53.240;6.580;2023-04-16T10:22:04;27.75;;;11.73;;
56233;SDS011;42141;53.240;6.580;2023-04-16T10:24:30;34.45;;;12.00;;
56233;SDS011;42141;53.240;6.580;2023-04-16T10:26:58;31.73;;;11.45;;
56233;SDS011;42141;53.240;6.580;2023-04-16T10:29:25;28.02;;;11.30;;
56233;SDS011;42141;53.240;6.580;2023-04-16T10:31:53;30.88;;;11.55;;
56233;SDS011;42141;53.240;6.580;2023-04-16T10:34:20;29.25;;;10.85;;
56233;SDS011;42141;53.240;6.580;2023-04-16T10:36:48;24.27;;;10.68;;
56233;SDS011;42141;53.240;6.580;2023-04-16T10:39:23;30.92;;;12.40;;
56233;SDS011;42141;53.240;6.580;2023-04-16T10:42:05;29.40;;;12.10;;
56233;SDS011;42141;53.240;6.580;2023-04-16T10:44:32;24.95;;;11.65;;
56233;SDS011;42141;53.240;6.580;2023-04-16T10:46:58;27.85;;;10.90;;
56233;SDS011;42141;53.240;6.580;2023-04-16T10:49:24;31.35;;;11.75;;
56233;SDS011;42141;53.240;6.580;2023-04-16T10:54:43;28.85;;;10.93;;
56233;SDS011;42141;53.240;6.580;2023-04-16T10:57:17;23.75;;;10.82;;
56233;SDS011;42141;53.240;6.580;2023-04-16T10:59:44;34.80;;;12.15;;
56233;SDS011;42141;53.240;6.580;2023-04-16T11:02:14;36.30;;;12.18;;
56233;SDS011;42141;53.240;6.580;2023-04-16T11:04:42;27.98;;;11.80;;
56233;SDS011;42141;53.240;6.580;2023-04-16T11:07:14;29.05;;;10.73;;
56233;SDS011;42141;53.240;6.580;2023-04-16T11:10:00;28.02;;;12.02;;
56233;SDS011;42141;53.240;6.580;2023-04-16T11:15:05;29.13;;;11.02;;
56233;SDS011;42141;53.240;6.580;2023-04-16T11:17:36;20.08;;;12.05;;
56233;SDS011;42141;53.240;6.580;2023-04-16T11:20:08;31.83;;;12.73;;
56233;SDS011;42141;53.240;6.580;2023-04-16T11:22:39;30.88;;;11.88;;
56233;SDS011;42141;53.240;6.580;2023-04-16T11:25:05;28.20;;;12.25;;
56233;SDS011;42141;53.240;6.580;2023-04-16T11:27:32;36.75;;;13.15;;
56233;SDS011;42141;53.240;6.580;2023-04-16T11:29:58;28.08;;;11.32;;
56233;SDS011;42141;53.240;6.580;2023-04-16T11:32:32;22.25;;;10.50;;
56233;SDS011;42141;53.240;6.580;2023-04-16T11:34:59;35.38;;;12.68;;
56233;SDS011;42141;53.240;6.580;2023-04-16T11:37:34;25.10;;;12.32;;
56233;SDS011;42141;53.240;6.580;2023-04-16T11:40:02;30.20;;;11.85;;
56233;SDS011;42141;53.240;6.580;2023-04-16T11:42:32;27.05;;;12.27;;
56233;SDS011;42141;53.240;6.580;2023-04-16T11:45:01;26.38;;;11.68;;
56233;SDS011;42141;53.240;6.580;2023-04-16T11:47:28;27.25;;;12.07;;
56233;SDS011;42141;53.240;6.580;2023-04-16T11:49:54;29.15;;;12.43;;
56233;SDS011;42141;53.240;6.580;2023-04-16T11:52:28;26.45;;;11.73;;
56233;SDS011;42141;53.240;6.580;2023-04-16T11:54:56;26.17;;;12.60;;
56233;SDS011;42141;53.240;6.580;2023-04-16T11:57:31;27.25;;;11.77;;
56233;SDS011;42141;53.240;6.580;2023-04-16T11:59:58;23.05;;;11.20;;
56233;SDS011;42141;53.240;6.580;2023-04-16T12:05:04;23.52;;;12.35;;
56233;SDS011;42141;53.240;6.580;2023-04-16T12:07:31;27.75;;;11.75;;
56233;SDS011;42141;53.240;6.580;2023-04-16T12:10:09;28.65;;;12.07;;
56233;SDS011;42141;53.240;6.580;2023-04-16T12:12:35;29.77;;;12.65;;
56233;SDS011;42141;53.240;6.580;2023-04-16T12:15:01;28.98;;;11.93;;
56233;SDS011;42141;53.240;6.580;2023-04-16T12:17:28;32.72;;;13.40;;
56233;SDS011;42141;53.240;6.580;2023-04-16T12:19:56;27.77;;;11.63;;
56233;SDS011;42141;53.240;6.580;2023-04-16T12:22:30;37.50;;;12.13;;
56233;SDS011;42141;53.240;6.580;2023-04-16T12:25:01;25.92;;;10.80;;
56233;SDS011;42141;53.240;6.580;2023-04-16T12:27:48;24.70;;;11.32;;
56233;SDS011;42141;53.240;6.580;2023-04-16T12:30:18;31.25;;;12.70;;
56233;SDS011;42141;53.240;6.580;2023-04-16T12:32:50;28.70;;;11.13;;
56233;SDS011;42141;53.240;6.580;2023-04-16T12:35:30;22.13;;;11.48;;
56233;SDS011;42141;53.240;6.580;2023-04-16T12:37:59;27.40;;;12.25;;
56233;SDS011;42141;53.240;6.580;2023-04-16T12:40:27;28.33;;;11.23;;
56233;SDS011;42141;53.240;6.580;2023-04-16T12:42:53;29.25;;;12.23;;
56233;SDS011;42141;53.240;6.580;2023-04-16T12:45:19;24.77;;;10.68;;
56233;SDS011;42141;53.240;6.580;2023-04-16T12:47:45;23.50;;;12.02;;
56233;SDS011;42141;53.240;6.580;2023-04-16T12:50:11;31.58;;;13.13;;
56233;SDS011;42141;53.240;6.580;2023-04-16T12:52:37;24.88;;;12.38;;
56233;SDS011;42141;53.240;6.580;2023-04-16T12:55:03;26.13;;;11.43;;
56233;SDS011;42141;53.240;6.580;2023-04-16T12:57:29;30.05;;;13.48;;
56233;SDS011;42141;53.240;6.580;2023-04-16T12:59:55;27.85;;;12.55;;
56233;SDS011;42141;53.240;6.580;2023-04-16T13:02:21;30.80;;;12.25;;
56233;SDS011;42141;53.240;6.580;2023-04-16T13:04:48;27.08;;;12.70;;
56233;SDS011;42141;53.240;6.580;2023-04-16T13:07:14;33.05;;;12.68;;
56233;SDS011;42141;53.240;6.580;2023-04-16T13:09:41;29.10;;;12.75;;
56233;SDS011;42141;53.240;6.580;2023-04-16T13:12:07;31.92;;;12.05;;
56233;SDS011;42141;53.240;6.580;2023-04-16T13:14:33;22.77;;;11.98;;
56233;SDS011;42141;53.240;6.580;2023-04-16T13:16:59;27.67;;;12.55;;
56233;SDS011;42141;53.240;6.580;2023-04-16T13:19:25;29.23;;;12.95;;
56233;SDS011;42141;53.240;6.580;2023-04-16T13:21:51;32.65;;;13.27;;
56233;SDS011;42141;53.240;6.580;2023-04-16T13:24:17;30.83;;;13.65;;
56233;SDS011;42141;53.240;6.580;2023-04-16T13:26:43;31.42;;;12.50;;
56233;SDS011;42141;53.240;6.580;2023-04-16T13:29:09;29.45;;;12.60;;
56233;SDS011;42141;53.240;6.580;2023-04-16T13:31:38;27.73;;;13.20;;
56233;SDS011;42141;53.240;6.580;2023-04-16T13:34:04;32.63;;;12.20;;
56233;SDS011;42141;53.240;6.580;2023-04-16T13:36:30;29.70;;;12.45;;
56233;SDS011;42141;53.240;6.580;2023-04-16T13:38:57;28.70;;;13.70;;
56233;SDS011;42141;53.240;6.580;2023-04-16T13:41:24;30.25;;;13.57;;
56233;SDS011;42141;53.240;6.580;2023-04-16T13:43:50;25.02;;;12.05;;
56233;SDS011;42141;53.240;6.580;2023-04-16T13:46:16;30.10;;;12.70;;
56233;SDS011;42141;53.240;6.580;2023-04-16T13:48:43;28.10;;;13.35;;
56233;SDS011;42141;53.240;6.580;2023-04-16T13:51:10;39.33;;;13.35;;
56233;SDS011;42141;53.240;6.580;2023-04-16T13:53:36;33.90;;;14.40;;
56233;SDS011;42141;53.240;6.580;2023-04-16T13:56:02;34.55;;;12.40;;
56233;SDS011;42141;53.240;6.580;2023-04-16T13:58:28;30.17;;;12.93;;
56233;SDS011;42141;53.240;6.580;2023-04-16T14:00:54;34.45;;;12.05;;
56233;SDS011;42141;53.240;6.580;2023-04-16T14:03:20;29.63;;;12.23;;
56233;SDS011;42141;53.240;6.580;2023-04-16T14:05:46;25.33;;;12.32;;
56233;SDS011;42141;53.240;6.580;2023-04-16T14:08:12;29.52;;;13.73;;
56233;SDS011;42141;53.240;6.580;2023-04-16T14:10:39;19.67;;;11.82;;
56233;SDS011;42141;53.240;6.580;2023-04-16T14:13:05;25.13;;;11.73;;
56233;SDS011;42141;53.240;6.580;2023-04-16T14:15:30;22.83;;;11.75;;
56233;SDS011;42141;53.240;6.580;2023-04-16T14:17:56;22.75;;;11.85;;
56233;SDS011;42141;53.240;6.580;2023-04-16T14:20:22;22.60;;;12.68;;
56233;SDS011;42141;53.240;6.580;2023-04-16T14:22:48;25.20;;;11.18;;
56233;SDS011;42141;53.240;6.580;2023-04-16T14:25:13;23.65;;;11.23;;
56233;SDS011;42141;53.240;6.580;2023-04-16T14:27:40;31.35;;;11.63;;